OZAOZONA MUNI
METARs for airports near OZA, sorted by distance:
N 0 nm 2376' KOZA 172135Z 19008G14KT 10SM CLR 36/13 A3002
E 29 nm 2139' KSOA 172135Z 14005KT 10SM CLR A3003
NE 52 nm 1918' KSJT 172051Z 09006KT 10SM SCT085 38/14 A2997
SE 71 nm 2372' KECU 172135Z VRB05G14KT 10SM CLR 34/17 A3007
E 75 nm 1753' KJCT 171851Z 18005KT 10SM CLR 32/21 A3006
S 82 nm 1002' KDRT 172053Z 11008KT 10SM CLR 36/19 A2993
S 85 nm 1081' KDLF 172055Z 08006KT 10SM FEW190 36/18 A2991
NW 88 nm 2872' KMAF 172053Z 16010G18KT 10SM FEW075 36/12 A3004
W 88 nm 3011' KFST 171953Z 11013G25KT 10SM CLR 37/11 A3006
N 90 nm 2572' KBPG 172135Z 14016KT 10SM TSRA OVC080 24/19 A3011
NW 90 nm 2805' KMDD 172135Z 15003KT 10SM CLR 36/11 A3003
NW 93 nm 3003' KODO 172053Z 18009G17KT 10SM CLR 36/12 A3006
TAFs for airports near OZA, sorted by distance:
E 29 nm 2139' KSOA TAF KSOA 171720Z 1718/1818 VRB05KT P6SM SCT230
  FM181000 VRB03KT P6SM FEW230
NE 52 nm 1918' KSJT KSJT 172128Z 1721/1818 09008KT P6SM SCT220
  TEMPO 1721/1723 07030G40KT P6SM -TSRA BKN060CB
  FM180100 11008KT P6SM SCT250
  TEMPO 1806/1809 P6SM -TSRA BKN050CB
  FM181100 VRB03KT P6SM VCSH BKN110
E 75 nm 1753' KJCT TAF KJCT 171720Z 1718/1818 VRB05KT P6SM SCT240
  FM181200 00000KT P6SM BKN200
S 82 nm 1002' KDRT KDRT 171725Z 1718/1818 14010KT P6SM FEW050
  FM180100 11007KT P6SM SCT250
S 85 nm 1081' KDLF TAF KDLF 161800Z 1618/1724 15012G20KT 9999 FEW030 QNH2981INS WND 13009KT AFT 1703
  BECMG 1709/1710 11008KT 9999 SCT020 QNH2993INS
  TEMPO 1712/1715 BKN015
  BECMG 1717/1718 15012G18KT 9999 FEW030 QNH2985INS TX38/1622Z TN25/1711Z
NW 88 nm 2872' KMAF KMAF 171727Z 1718/1818 13011KT P6SM FEW070 SCT200
  FM180100 09013KT P6SM SCT100
W 88 nm 3011' KFST KFST 171727Z 1718/1818 12011KT P6SM FEW250
  FM181200 08012KT P6SM SCT250

Shortcut to this page: http://wxbay.com.

Data may contain errors.